createdAt,value
2023-04-01T00:00:55.283Z,5.90
2023-04-01T00:03:24.831Z,5.50
2023-04-01T00:05:54.865Z,6.10
2023-04-01T00:08:23.530Z,5.70
2023-04-01T00:10:51.807Z,6.80
2023-04-01T00:13:20.890Z,6.00
2023-04-01T00:15:49.657Z,6.40
2023-04-01T00:18:17.960Z,6.60
2023-04-01T00:20:49.267Z,6.60
2023-04-01T00:25:47.829Z,6.30
2023-04-01T00:28:18.246Z,6.60
2023-04-01T00:30:47.279Z,7.20
2023-04-01T00:33:16.185Z,6.30
2023-04-01T00:35:44.505Z,5.70
2023-04-01T00:38:13.333Z,6.30
2023-04-01T00:40:45.798Z,6.50
2023-04-01T00:43:20.565Z,5.90
2023-04-01T00:45:50.443Z,6.60
2023-04-01T00:48:31.606Z,6.70
2023-04-01T00:51:03.831Z,6.20
2023-04-01T00:53:35.368Z,6.70
2023-04-01T00:59:02.753Z,6.20
2023-04-01T01:01:32.174Z,6.40
2023-04-01T01:04:00.786Z,5.90
2023-04-01T01:06:31.601Z,5.20
2023-04-01T01:09:39.703Z,5.40
2023-04-01T01:12:16.951Z,4.90
2023-04-01T01:14:55.199Z,4.50
2023-04-01T01:17:38.581Z,4.70
2023-04-01T01:20:43.902Z,4.10
2023-04-01T01:23:38.267Z,4.30
2023-04-01T01:26:53.267Z,3.80
2023-04-01T01:30:02.596Z,3.70
2023-04-01T01:33:01.265Z,3.60
2023-04-01T01:35:38.315Z,4.00
2023-04-01T01:38:14.956Z,3.40
2023-04-01T01:40:54.900Z,3.50
2023-04-01T01:43:31.168Z,3.40
2023-04-01T01:46:06.606Z,4.00
2023-04-01T01:48:37.120Z,3.80
2023-04-01T01:51:07.521Z,3.60
2023-04-01T01:53:37.310Z,3.90
2023-04-01T01:56:06.878Z,3.70
2023-04-01T01:58:48.698Z,3.10
2023-04-01T02:01:28.741Z,3.00
2023-04-01T02:04:00.498Z,3.20
2023-04-01T02:06:33.464Z,3.10
2023-04-01T02:09:12.133Z,3.90
2023-04-01T02:12:05.599Z,3.40
2023-04-01T02:15:01.050Z,3.30
2023-04-01T02:17:32.387Z,3.20
2023-04-01T02:20:08.146Z,2.90
2023-04-01T02:22:48.981Z,3.00
2023-04-01T02:25:30.956Z,3.30
2023-04-01T02:28:01.428Z,2.90
2023-04-01T02:30:32.740Z,3.00
2023-04-01T02:33:02.693Z,3.00
2023-04-01T02:35:37.300Z,2.90
2023-04-01T02:38:07.007Z,2.80
2023-04-01T02:40:49.379Z,2.80
2023-04-01T02:45:45.481Z,2.60
2023-04-01T02:48:15.041Z,2.50
2023-04-01T02:50:43.103Z,2.60
2023-04-01T02:53:11.087Z,2.60
2023-04-01T02:55:39.438Z,2.80
2023-04-01T02:58:07.486Z,2.70
2023-04-01T03:00:36.128Z,3.10
2023-04-01T03:03:04.848Z,3.50
2023-04-01T03:05:33.021Z,3.80
2023-04-01T03:08:01.544Z,3.70
2023-04-01T03:10:29.569Z,3.30
2023-04-01T03:12:57.376Z,3.30
2023-04-01T03:15:25.619Z,3.50
2023-04-01T03:17:53.446Z,4.10
2023-04-01T03:20:21.481Z,3.60
2023-04-01T03:22:49.366Z,3.30
2023-04-01T03:25:17.255Z,4.40
2023-04-01T03:27:45.724Z,4.20
2023-04-01T03:30:13.737Z,3.40
2023-04-01T03:32:47.332Z,4.50
2023-04-01T03:35:15.614Z,3.90
2023-04-01T03:37:43.789Z,3.50
2023-04-01T03:40:12.620Z,3.30
2023-04-01T03:42:40.829Z,3.10
2023-04-01T03:45:10.311Z,3.10
2023-04-01T03:47:38.942Z,2.60
2023-04-01T03:50:08.332Z,2.50
2023-04-01T03:52:36.486Z,2.50
2023-04-01T03:55:05.392Z,2.50
2023-04-01T03:57:33.309Z,2.80
2023-04-01T04:00:04.949Z,2.10
2023-04-01T04:02:41.702Z,2.50
2023-04-01T04:05:10.756Z,2.30
2023-04-01T04:07:39.125Z,2.50
2023-04-01T04:10:10.178Z,2.00
2023-04-01T04:12:38.121Z,2.00
2023-04-01T04:15:07.752Z,1.60
2023-04-01T04:17:38.732Z,1.80
2023-04-01T04:20:08.699Z,1.70
2023-04-01T04:22:36.762Z,2.00
2023-04-01T04:25:07.248Z,2.10
2023-04-01T04:27:35.345Z,1.60
2023-04-01T04:30:11.765Z,1.90
2023-04-01T04:32:39.611Z,1.80
2023-04-01T04:35:08.760Z,1.80
2023-04-01T04:37:36.744Z,1.70
2023-04-01T04:40:06.180Z,2.40
2023-04-01T04:42:33.988Z,2.20
2023-04-01T04:45:06.962Z,2.40
2023-04-01T04:47:34.790Z,2.30
2023-04-01T04:50:02.685Z,2.70
2023-04-01T04:52:30.552Z,2.50
2023-04-01T04:54:58.546Z,2.50
2023-04-01T04:57:26.586Z,2.30
2023-04-01T04:59:56.650Z,2.50
2023-04-01T05:02:42.883Z,2.50
2023-04-01T05:05:11.414Z,2.30
2023-04-01T05:07:39.442Z,2.40
2023-04-01T05:10:08.048Z,2.80
2023-04-01T05:12:38.501Z,3.50
2023-04-01T05:17:36.142Z,3.50
2023-04-01T05:20:06.175Z,3.40
2023-04-01T05:22:34.128Z,4.20
2023-04-01T05:25:01.978Z,4.50
2023-04-01T05:27:30.038Z,4.20
2023-04-01T05:29:57.880Z,4.80
2023-04-01T05:32:42.284Z,4.60
2023-04-01T05:35:11.112Z,4.60
2023-04-01T05:37:38.986Z,4.40
2023-04-01T05:40:08.201Z,4.00
2023-04-01T05:42:38.153Z,4.50
2023-04-01T05:45:07.491Z,3.80
2023-04-01T05:48:07.378Z,4.20
2023-04-01T05:50:42.615Z,4.20
2023-04-01T05:53:11.399Z,3.50
2023-04-01T05:55:40.978Z,3.50
2023-04-01T05:58:09.053Z,3.50
2023-04-01T06:00:37.703Z,4.00
2023-04-01T06:03:06.223Z,4.20
2023-04-01T06:05:45.769Z,3.90
2023-04-01T06:08:20.357Z,3.70
2023-04-01T06:11:16.904Z,3.80
2023-04-01T06:14:10.873Z,3.50
2023-04-01T06:17:03.598Z,3.60
2023-04-01T06:20:01.269Z,3.20
2023-04-01T06:22:52.275Z,3.00
2023-04-01T06:25:37.661Z,3.40
2023-04-01T06:28:35.937Z,3.70
2023-04-01T06:31:34.895Z,3.70
2023-04-01T06:34:39.720Z,3.90
2023-04-01T06:37:38.943Z,4.10
2023-04-01T06:40:52.172Z,4.00
2023-04-01T06:43:53.840Z,4.30
2023-04-01T06:46:50.697Z,4.40
2023-04-01T06:50:02.079Z,4.10
2023-04-01T06:52:56.254Z,4.10
2023-04-01T06:56:10.978Z,3.80
2023-04-01T06:59:29.053Z,3.50
2023-04-01T07:02:17.371Z,3.30
2023-04-01T07:04:51.494Z,3.40
2023-04-01T07:07:42.400Z,3.80
2023-04-01T07:10:32.071Z,3.60
2023-04-01T07:13:27.983Z,3.50
2023-04-01T07:16:29.115Z,3.40
2023-04-01T07:19:13.473Z,3.00
2023-04-01T07:22:06.800Z,2.60
2023-04-01T07:25:06.397Z,2.40
2023-04-01T07:27:34.341Z,2.50
2023-04-01T07:30:05.601Z,3.00
2023-04-01T07:32:57.650Z,2.50
2023-04-01T07:35:37.004Z,2.50
2023-04-01T07:38:41.395Z,2.60
2023-04-01T07:41:26.753Z,2.80
2023-04-01T07:44:27.586Z,2.40
2023-04-01T07:47:20.824Z,2.50
2023-04-01T07:50:07.643Z,2.70
2023-04-01T07:53:07.107Z,2.60
2023-04-01T07:55:56.917Z,3.20
2023-04-01T07:58:53.654Z,3.70
2023-04-01T08:02:26.029Z,3.50
2023-04-01T08:05:02.109Z,3.60
2023-04-01T08:07:48.264Z,3.80
2023-04-01T08:10:45.218Z,3.40
2023-04-01T08:13:53.704Z,3.60
2023-04-01T08:17:46.208Z,3.60
2023-04-01T08:20:33.792Z,3.70
2023-04-01T08:23:14.700Z,3.60
2023-04-01T08:26:37.264Z,3.60
2023-04-01T08:29:08.204Z,3.60
2023-04-01T08:31:52.971Z,4.00
2023-04-01T08:34:27.103Z,3.40
2023-04-01T08:37:07.657Z,3.30
2023-04-01T08:39:43.454Z,3.80
2023-04-01T08:42:41.514Z,3.30
2023-04-01T08:46:07.350Z,3.30
2023-04-01T08:51:17.688Z,3.90
2023-04-01T08:54:14.249Z,3.80
2023-04-01T08:57:00.810Z,3.30
2023-04-01T09:00:23.416Z,4.00
2023-04-01T09:03:44.367Z,5.00
2023-04-01T09:06:46.922Z,4.50
2023-04-01T09:10:02.386Z,4.90
2023-04-01T09:13:17.226Z,4.90
2023-04-01T09:16:46.589Z,5.40
2023-04-01T09:19:46.254Z,4.00
2023-04-01T09:22:32.661Z,4.40
2023-04-01T09:25:00.718Z,4.40
2023-04-01T09:27:55.644Z,4.10
2023-04-01T09:30:48.513Z,3.60
2023-04-01T09:33:53.497Z,4.50
2023-04-01T09:36:49.743Z,4.30
2023-04-01T09:39:38.400Z,4.40
2023-04-01T09:42:43.765Z,3.70
2023-04-01T09:46:04.989Z,4.70
2023-04-01T09:49:08.941Z,4.10
2023-04-01T09:51:50.853Z,3.90
2023-04-01T09:55:15.479Z,4.30
2023-04-01T09:58:17.310Z,7.00
2023-04-01T10:01:29.018Z,7.10
2023-04-01T10:04:21.804Z,5.50
2023-04-01T10:07:27.847Z,5.20
2023-04-01T10:10:40.642Z,7.20
2023-04-01T10:13:30.145Z,9.40
2023-04-01T10:16:25.523Z,15.10
2023-04-01T10:19:45.346Z,8.30
2023-04-01T10:22:31.587Z,5.00
2023-04-01T10:25:17.673Z,5.20
2023-04-01T10:28:42.326Z,5.40
2023-04-01T10:32:23.818Z,5.90
2023-04-01T10:35:16.449Z,5.20
2023-04-01T10:37:47.678Z,4.70
2023-04-01T10:40:51.684Z,4.80
2023-04-01T10:44:08.700Z,4.30
2023-04-01T10:47:20.982Z,4.70
2023-04-01T10:50:04.310Z,4.80
2023-04-01T10:52:56.661Z,4.50
2023-04-01T10:56:05.659Z,3.10
2023-04-01T11:02:10.015Z,3.20
2023-04-01T11:05:11.038Z,3.30
2023-04-01T11:08:51.652Z,2.90
2023-04-01T11:12:15.401Z,3.00
2023-04-01T11:15:17.748Z,3.30
2023-04-01T11:18:04.127Z,3.20
2023-04-01T11:21:00.392Z,3.40
2023-04-01T11:24:05.630Z,3.80
2023-04-01T11:27:27.373Z,3.40
2023-04-01T11:30:14.704Z,3.00
2023-04-01T11:33:27.317Z,3.30
2023-04-01T11:35:58.481Z,2.90
2023-04-01T11:38:59.205Z,2.40
2023-04-01T11:42:07.935Z,2.30
2023-04-01T11:45:28.745Z,2.30
2023-04-01T11:48:31.482Z,3.20
2023-04-01T11:51:55.589Z,2.50
2023-04-01T11:54:52.733Z,3.90
2023-04-01T11:58:16.672Z,3.10
2023-04-01T12:01:17.435Z,3.00
2023-04-01T12:04:16.534Z,2.90
2023-04-01T12:07:26.542Z,2.70
2023-04-01T12:10:20.640Z,3.10
2023-04-01T12:13:09.113Z,3.50
2023-04-01T12:15:59.819Z,2.40
2023-04-01T12:18:37.658Z,2.60
2023-04-01T12:21:36.227Z,2.30
2023-04-01T12:24:32.007Z,2.40
2023-04-01T12:27:11.894Z,2.50
2023-04-01T12:29:56.463Z,2.40
2023-04-01T12:32:42.597Z,2.90
2023-04-01T12:35:45.730Z,2.40
2023-04-01T12:38:37.214Z,2.40
2023-04-01T12:41:38.773Z,3.60
2023-04-01T12:45:14.427Z,3.50
2023-04-01T12:48:23.032Z,3.40
2023-04-01T12:51:35.043Z,4.10
2023-04-01T12:54:30.707Z,3.10
2023-04-01T12:57:35.526Z,3.20
2023-04-01T13:00:52.902Z,3.00
2023-04-01T13:03:38.147Z,4.00
2023-04-01T13:06:27.041Z,3.40
2023-04-01T13:09:51.971Z,3.70
2023-04-01T13:12:48.889Z,4.20
2023-04-01T13:15:33.107Z,4.20
2023-04-01T13:18:21.962Z,3.90
2023-04-01T13:21:27.412Z,4.20
2023-04-01T13:24:18.344Z,4.30
2023-04-01T13:27:23.845Z,3.40
2023-04-01T13:30:27.090Z,3.50
2023-04-01T13:33:21.530Z,3.60
2023-04-01T13:36:24.176Z,3.00
2023-04-01T13:39:14.577Z,2.70
2023-04-01T13:42:03.592Z,2.70
2023-04-01T13:44:52.166Z,2.50
2023-04-01T13:48:15.036Z,2.70
2023-04-01T13:51:53.594Z,2.50
2023-04-01T13:54:49.428Z,2.20
2023-04-01T13:58:04.893Z,2.10
2023-04-01T14:00:54.731Z,2.20
2023-04-01T14:04:34.122Z,2.30
2023-04-01T14:07:38.955Z,1.80
2023-04-01T14:10:18.944Z,2.00
2023-04-01T14:12:55.640Z,1.80
2023-04-01T14:16:01.990Z,2.10
2023-04-01T14:19:00.685Z,2.00
2023-04-01T14:22:01.925Z,2.00
2023-04-01T14:24:57.828Z,1.90
2023-04-01T14:27:43.590Z,1.90
2023-04-01T14:30:37.815Z,1.90
2023-04-01T14:33:47.187Z,1.90
2023-04-01T14:36:30.212Z,2.40
2023-04-01T14:39:30.700Z,2.30
2023-04-01T14:42:21.892Z,2.40
2023-04-01T14:45:18.226Z,2.60
2023-04-01T14:47:54.997Z,3.00
2023-04-01T14:50:27.938Z,2.80
2023-04-01T14:53:28.323Z,2.70
2023-04-01T14:56:00.006Z,2.70
2023-04-01T14:58:51.656Z,2.70
2023-04-01T15:01:59.764Z,2.30
2023-04-01T15:04:55.580Z,2.20
2023-04-01T15:07:45.169Z,2.30
2023-04-01T15:10:36.227Z,2.30
2023-04-01T15:13:16.165Z,2.10
2023-04-01T15:16:09.221Z,2.00
2023-04-01T15:19:04.385Z,1.90
2023-04-01T15:21:38.827Z,1.90
2023-04-01T15:24:38.285Z,2.10
2023-04-01T15:27:22.572Z,2.00
2023-04-01T15:30:02.563Z,2.20
2023-04-01T15:33:12.207Z,1.80
2023-04-01T15:36:17.764Z,1.90
2023-04-01T15:38:58.372Z,2.20
2023-04-01T15:41:38.350Z,2.60
2023-04-01T15:44:39.346Z,2.60
2023-04-01T15:47:26.945Z,2.10
2023-04-01T15:50:31.939Z,2.60
2023-04-01T15:53:30.465Z,2.40
2023-04-01T15:56:37.446Z,2.50
2023-04-01T15:59:30.228Z,2.40
2023-04-01T16:02:48.523Z,2.90
2023-04-01T16:05:19.244Z,2.60
2023-04-01T16:08:03.350Z,2.50
2023-04-01T16:11:02.127Z,3.30
2023-04-01T16:14:02.032Z,2.70
2023-04-01T16:17:09.714Z,2.80
2023-04-01T16:20:01.049Z,2.40
2023-04-01T16:23:01.317Z,2.10
2023-04-01T16:25:50.897Z,2.40
2023-04-01T16:28:35.331Z,2.50
2023-04-01T16:31:26.492Z,2.50
2023-04-01T16:34:16.869Z,2.80
2023-04-01T16:36:55.915Z,2.50
2023-04-01T16:39:31.553Z,2.40
2023-04-01T16:42:12.611Z,2.40
2023-04-01T16:45:08.455Z,2.30
2023-04-01T16:48:17.570Z,2.30
2023-04-01T16:50:53.900Z,2.40
2023-04-01T16:53:44.662Z,2.00
2023-04-01T16:56:22.295Z,2.30
2023-04-01T16:59:06.604Z,1.90
2023-04-01T17:02:09.962Z,1.90
2023-04-01T17:04:59.841Z,1.80
2023-04-01T17:07:45.683Z,2.70
2023-04-01T17:10:47.543Z,2.60
2023-04-01T17:14:16.419Z,2.90
2023-04-01T17:16:55.388Z,2.40
2023-04-01T17:19:54.874Z,2.60
2023-04-01T17:22:49.895Z,2.90
2023-04-01T17:26:02.955Z,3.30
2023-04-01T17:28:39.700Z,3.50
2023-04-01T17:31:42.166Z,2.70
2023-04-01T17:34:34.892Z,3.00
2023-04-01T17:37:10.447Z,2.90
2023-04-01T17:40:16.737Z,2.70
2023-04-01T17:43:17.329Z,2.80
2023-04-01T17:46:37.684Z,2.40
2023-04-01T17:49:20.741Z,2.30
2023-04-01T17:52:20.954Z,11.20
2023-04-01T17:55:27.361Z,2.80
2023-04-01T17:58:29.984Z,2.60
2023-04-01T18:01:13.011Z,6.60
2023-04-01T18:03:59.290Z,2.60
2023-04-01T18:07:05.006Z,2.90
2023-04-01T18:09:57.917Z,2.70
2023-04-01T18:12:58.532Z,4.40
2023-04-01T18:16:07.386Z,4.20
2023-04-01T18:18:54.960Z,4.60
2023-04-01T18:22:07.408Z,3.00
2023-04-01T18:24:49.206Z,7.90
2023-04-01T18:27:29.344Z,2.00
2023-04-01T18:30:37.145Z,1.90
2023-04-01T18:33:51.123Z,2.00
2023-04-01T18:36:39.316Z,2.30
2023-04-01T18:39:24.018Z,2.00
2023-04-01T18:42:25.896Z,14.40
2023-04-01T18:45:11.910Z,3.40
2023-04-01T18:47:52.421Z,3.00
2023-04-01T18:50:53.894Z,3.20
2023-04-01T18:54:01.563Z,2.60
2023-04-01T18:56:46.364Z,2.90
2023-04-01T18:59:28.593Z,2.40
2023-04-01T19:02:19.623Z,3.50
2023-04-01T19:05:12.187Z,3.20
2023-04-01T19:07:52.328Z,2.90
2023-04-01T19:11:04.912Z,2.80
2023-04-01T19:13:57.129Z,2.90
2023-04-01T19:16:40.183Z,2.60
2023-04-01T19:19:45.042Z,2.90
2023-04-01T19:23:01.020Z,4.30
2023-04-01T19:25:52.008Z,3.90
2023-04-01T19:28:50.807Z,3.70
2023-04-01T19:32:02.359Z,4.60
2023-04-01T19:34:48.295Z,4.10
2023-04-01T19:37:46.179Z,4.60
2023-04-01T19:40:44.566Z,4.70
2023-04-01T19:43:43.472Z,4.80
2023-04-01T19:46:42.007Z,3.90
2023-04-01T19:49:45.776Z,4.30
2023-04-01T19:52:29.708Z,4.60
2023-04-01T19:55:37.960Z,4.70
2023-04-01T19:58:29.766Z,4.70
2023-04-01T20:03:57.811Z,6.10
2023-04-01T20:06:45.133Z,6.40
2023-04-01T20:09:43.782Z,6.50
2023-04-01T20:12:35.798Z,7.10
2023-04-01T20:15:23.985Z,7.00
2023-04-01T20:17:58.870Z,6.90
2023-04-01T20:20:31.831Z,6.80
2023-04-01T20:23:12.359Z,5.00
2023-04-01T20:25:49.770Z,3.50
2023-04-01T20:28:21.500Z,2.80
2023-04-01T20:31:26.427Z,2.40
2023-04-01T20:34:23.016Z,2.20
2023-04-01T20:37:40.211Z,1.90
2023-04-01T20:40:38.734Z,2.10
2023-04-01T20:43:52.935Z,1.70
2023-04-01T20:46:39.046Z,1.60
2023-04-01T20:49:28.964Z,1.80
2023-04-01T20:52:15.942Z,1.50
2023-04-01T20:55:19.637Z,1.60
2023-04-01T20:58:14.601Z,1.50
2023-04-01T21:01:17.467Z,1.60
2023-04-01T21:04:27.617Z,1.50
2023-04-01T21:07:35.871Z,1.70
2023-04-01T21:10:12.640Z,1.60
2023-04-01T21:12:43.406Z,1.70
2023-04-01T21:15:49.060Z,1.90
2023-04-01T21:18:44.461Z,1.50
2023-04-01T21:22:08.356Z,1.80
2023-04-01T21:25:03.240Z,1.50
2023-04-01T21:28:07.356Z,1.70
2023-04-01T21:31:00.396Z,1.70
2023-04-01T21:34:06.762Z,1.30
2023-04-01T21:37:08.464Z,1.10
2023-04-01T21:40:17.458Z,1.20
2023-04-01T21:43:04.330Z,1.50
2023-04-01T21:46:06.275Z,1.10
2023-04-01T21:49:01.950Z,1.40
2023-04-01T21:52:19.620Z,1.20
2023-04-01T21:54:58.388Z,1.30
2023-04-01T21:57:49.570Z,1.40
2023-04-01T22:00:25.285Z,1.30
2023-04-01T22:03:36.092Z,1.60
2023-04-01T22:06:25.892Z,1.30
2023-04-01T22:09:22.228Z,1.20
2023-04-01T22:12:03.873Z,1.60
2023-04-01T22:17:25.156Z,1.30
2023-04-01T22:20:11.669Z,1.10
2023-04-01T22:23:30.234Z,1.20
2023-04-01T22:26:18.662Z,1.20
2023-04-01T22:29:10.779Z,1.50
2023-04-01T22:31:55.909Z,1.30
2023-04-01T22:34:48.690Z,1.00
2023-04-01T22:37:46.505Z,1.60
2023-04-01T22:40:43.219Z,1.10
2023-04-01T22:43:20.435Z,1.00
2023-04-01T22:45:54.087Z,1.00
2023-04-01T22:48:43.691Z,1.00
2023-04-01T22:51:32.066Z,1.20
2023-04-01T22:54:23.112Z,1.10
2023-04-01T22:57:11.376Z,1.10
2023-04-01T22:59:59.803Z,1.60
2023-04-01T23:03:23.002Z,1.20
2023-04-01T23:05:58.984Z,1.00
2023-04-01T23:09:12.498Z,1.00
2023-04-01T23:12:01.571Z,1.20
2023-04-01T23:14:47.546Z,1.20
2023-04-01T23:17:47.377Z,1.40
2023-04-01T23:20:23.618Z,1.30
2023-04-01T23:23:00.593Z,1.70
2023-04-01T23:25:44.778Z,1.50
2023-04-01T23:28:15.694Z,1.20
2023-04-01T23:30:43.496Z,1.10
2023-04-01T23:33:20.481Z,1.10
2023-04-01T23:36:06.685Z,1.10
2023-04-01T23:38:43.673Z,1.10
2023-04-01T23:41:31.569Z,1.10
2023-04-01T23:44:13.154Z,1.30
2023-04-01T23:46:43.966Z,1.50
2023-04-01T23:49:22.645Z,1.30
2023-04-01T23:52:03.746Z,1.40
2023-04-01T23:54:45.267Z,1.70
